sensor_id;sensor_type;location;lat;lon;timestamp;pressure;altitude;pressure_sealevel;temperature;humidity
22753;BME280;11543;43.144;24.684;2023-01-28T00:00:26;98412.13;;;3.17;83.62
22753;BME280;11543;43.144;24.684;2023-01-28T00:02:51;98408.75;;;3.15;83.29
22753;BME280;11543;43.144;24.684;2023-01-28T00:05:17;98426.09;;;3.19;83.59
22753;BME280;11543;43.144;24.684;2023-01-28T00:07:42;98415.63;;;3.18;83.45
22753;BME280;11543;43.144;24.684;2023-01-28T00:10:09;98414.78;;;3.17;83.89
22753;BME280;11543;43.144;24.684;2023-01-28T00:12:34;98415.00;;;3.14;83.71
22753;BME280;11543;43.144;24.684;2023-01-28T00:15:00;98412.34;;;3.14;83.54
22753;BME280;11543;43.144;24.684;2023-01-28T00:17:25;98417.53;;;3.16;84.00
22753;BME280;11543;43.144;24.684;2023-01-28T00:19:50;98420.69;;;3.21;84.36
22753;BME280;11543;43.144;24.684;2023-01-28T00:22:16;98428.75;;;3.31;84.58
22753;BME280;11543;43.144;24.684;2023-01-28T00:24:41;98423.44;;;3.31;84.70
22753;BME280;11543;43.144;24.684;2023-01-28T00:27:07;98416.69;;;3.27;85.05
22753;BME280;11543;43.144;24.684;2023-01-28T00:29:33;98427.91;;;3.30;85.43
22753;BME280;11543;43.144;24.684;2023-01-28T00:31:58;98431.91;;;3.47;85.50
22753;BME280;11543;43.144;24.684;2023-01-28T00:34:23;98440.59;;;3.60;85.32
22753;BME280;11543;43.144;24.684;2023-01-28T00:36:49;98433.34;;;3.62;85.64
22753;BME280;11543;43.144;24.684;2023-01-28T00:39:22;98442.28;;;3.61;85.61
22753;BME280;11543;43.144;24.684;2023-01-28T00:41:49;98437.22;;;3.58;85.28
22753;BME280;11543;43.144;24.684;2023-01-28T00:44:14;98443.25;;;3.60;85.35
22753;BME280;11543;43.144;24.684;2023-01-28T00:46:40;98450.34;;;3.60;85.31
22753;BME280;11543;43.144;24.684;2023-01-28T00:49:06;98447.00;;;3.58;85.25
22753;BME280;11543;43.144;24.684;2023-01-28T00:51:32;98453.13;;;3.58;85.16
22753;BME280;11543;43.144;24.684;2023-01-28T00:53:58;98453.13;;;3.58;85.07
22753;BME280;11543;43.144;24.684;2023-01-28T00:56:24;98453.38;;;3.55;85.07
22753;BME280;11543;43.144;24.684;2023-01-28T00:58:49;98459.63;;;3.65;85.00
22753;BME280;11543;43.144;24.684;2023-01-28T01:01:17;98466.63;;;3.66;85.18
22753;BME280;11543;43.144;24.684;2023-01-28T01:03:43;98457.72;;;3.67;85.27
22753;BME280;11543;43.144;24.684;2023-01-28T01:06:10;98467.25;;;3.70;85.19
22753;BME280;11543;43.144;24.684;2023-01-28T01:08:36;98461.34;;;3.66;85.05
22753;BME280;11543;43.144;24.684;2023-01-28T01:11:05;98474.47;;;3.68;85.09
22753;BME280;11543;43.144;24.684;2023-01-28T01:13:32;98470.00;;;3.68;85.49
22753;BME280;11543;43.144;24.684;2023-01-28T01:16:12;98467.72;;;3.64;85.46
22753;BME280;11543;43.144;24.684;2023-01-28T01:18:39;98460.13;;;3.59;85.02
22753;BME280;11543;43.144;24.684;2023-01-28T01:21:16;98463.75;;;3.58;85.18
22753;BME280;11543;43.144;24.684;2023-01-28T01:23:42;98462.78;;;3.59;85.06
22753;BME280;11543;43.144;24.684;2023-01-28T01:26:08;98464.47;;;3.60;85.45
22753;BME280;11543;43.144;24.684;2023-01-28T01:28:34;98469.41;;;3.65;85.42
22753;BME280;11543;43.144;24.684;2023-01-28T01:31:00;98458.19;;;3.61;85.31
22753;BME280;11543;43.144;24.684;2023-01-28T01:33:28;98467.84;;;3.73;85.22
22753;BME280;11543;43.144;24.684;2023-01-28T01:35:54;98472.41;;;3.82;84.99
22753;BME280;11543;43.144;24.684;2023-01-28T01:38:20;98481.09;;;3.84;85.06
22753;BME280;11543;43.144;24.684;2023-01-28T01:40:45;98479.75;;;3.90;84.94
22753;BME280;11543;43.144;24.684;2023-01-28T01:43:15;98476.88;;;3.93;84.78
22753;BME280;11543;43.144;24.684;2023-01-28T01:45:41;98481.31;;;4.04;84.70
22753;BME280;11543;43.144;24.684;2023-01-28T01:48:20;98480.22;;;4.06;84.60
22753;BME280;11543;43.144;24.684;2023-01-28T01:51:00;98491.69;;;4.07;84.19
22753;BME280;11543;43.144;24.684;2023-01-28T01:53:29;98486.13;;;4.10;84.09
22753;BME280;11543;43.144;24.684;2023-01-28T01:56:00;98492.03;;;4.13;83.77
22753;BME280;11543;43.144;24.684;2023-01-28T01:58:30;98490.44;;;4.22;83.70
22753;BME280;11543;43.144;24.684;2023-01-28T02:00:57;98484.88;;;4.25;83.44
22753;BME280;11543;43.144;24.684;2023-01-28T02:03:28;98480.06;;;4.30;83.44
22753;BME280;11543;43.144;24.684;2023-01-28T02:05:56;98478.34;;;4.29;82.95
22753;BME280;11543;43.144;24.684;2023-01-28T02:08:21;98468.97;;;4.25;82.75
22753;BME280;11543;43.144;24.684;2023-01-28T02:10:57;98487.88;;;4.32;82.52
22753;BME280;11543;43.144;24.684;2023-01-28T02:13:27;98482.94;;;4.27;82.46
22753;BME280;11543;43.144;24.684;2023-01-28T02:15:56;98479.31;;;4.28;82.97
22753;BME280;11543;43.144;24.684;2023-01-28T02:18:23;98494.28;;;4.40;82.56
22753;BME280;11543;43.144;24.684;2023-01-28T02:23:58;98499.94;;;4.47;82.56
22753;BME280;11543;43.144;24.684;2023-01-28T02:29:17;98501.72;;;4.58;81.47
22753;BME280;11543;43.144;24.684;2023-01-28T02:31:53;98500.19;;;4.44;81.40
22753;BME280;11543;43.144;24.684;2023-01-28T02:34:30;98502.97;;;4.42;81.41
22753;BME280;11543;43.144;24.684;2023-01-28T02:37:20;98511.31;;;4.38;81.45
22753;BME280;11543;43.144;24.684;2023-01-28T02:39:50;98508.06;;;4.34;81.56
22753;BME280;11543;43.144;24.684;2023-01-28T02:42:24;98506.34;;;4.33;81.37
22753;BME280;11543;43.144;24.684;2023-01-28T02:44:51;98510.47;;;4.37;82.25
22753;BME280;11543;43.144;24.684;2023-01-28T02:47:17;98506.59;;;4.41;81.86
22753;BME280;11543;43.144;24.684;2023-01-28T02:50:04;98510.69;;;4.45;81.86
22753;BME280;11543;43.144;24.684;2023-01-28T02:56:32;98511.75;;;4.54;80.94
22753;BME280;11543;43.144;24.684;2023-01-28T02:59:22;98514.03;;;4.59;80.84
22753;BME280;11543;43.144;24.684;2023-01-28T03:02:22;98518.00;;;4.64;80.90
22753;BME280;11543;43.144;24.684;2023-01-28T03:07:26;98521.88;;;4.60;80.52
22753;BME280;11543;43.144;24.684;2023-01-28T03:09:55;98512.59;;;4.55;80.57
22753;BME280;11543;43.144;24.684;2023-01-28T03:12:25;98516.47;;;4.51;80.75
22753;BME280;11543;43.144;24.684;2023-01-28T03:15:16;98507.19;;;4.45;80.73
22753;BME280;11543;43.144;24.684;2023-01-28T03:21:15;98508.28;;;4.42;81.00
22753;BME280;11543;43.144;24.684;2023-01-28T03:27:05;98518.63;;;4.57;80.78
22753;BME280;11543;43.144;24.684;2023-01-28T03:29:54;98522.00;;;4.59;80.89
22753;BME280;11543;43.144;24.684;2023-01-28T03:32:41;98519.09;;;4.62;80.94
22753;BME280;11543;43.144;24.684;2023-01-28T03:35:28;98522.47;;;4.64;80.74
22753;BME280;11543;43.144;24.684;2023-01-28T03:38:14;98517.16;;;4.64;80.65
22753;BME280;11543;43.144;24.684;2023-01-28T03:40:58;98525.13;;;4.64;80.43
22753;BME280;11543;43.144;24.684;2023-01-28T03:43:30;98526.09;;;4.63;80.41
22753;BME280;11543;43.144;24.684;2023-01-28T03:45:56;98521.50;;;4.65;80.22
22753;BME280;11543;43.144;24.684;2023-01-28T03:48:23;98525.84;;;4.66;80.09
22753;BME280;11543;43.144;24.684;2023-01-28T03:50:50;98530.66;;;4.72;79.70
22753;BME280;11543;43.144;24.684;2023-01-28T03:53:16;98528.63;;;4.64;80.07
22753;BME280;11543;43.144;24.684;2023-01-28T03:55:43;98536.72;;;4.63;79.90
22753;BME280;11543;43.144;24.684;2023-01-28T03:58:09;98536.03;;;4.50;80.06
22753;BME280;11543;43.144;24.684;2023-01-28T04:00:35;98540.41;;;4.39;80.00
22753;BME280;11543;43.144;24.684;2023-01-28T04:03:13;98551.28;;;4.36;80.73
22753;BME280;11543;43.144;24.684;2023-01-28T04:06:00;98554.91;;;4.35;81.20
22753;BME280;11543;43.144;24.684;2023-01-28T04:08:26;98559.13;;;4.38;81.31
22753;BME280;11543;43.144;24.684;2023-01-28T04:10:52;98560.69;;;4.40;81.20
22753;BME280;11543;43.144;24.684;2023-01-28T04:13:18;98565.97;;;4.52;80.72
22753;BME280;11543;43.144;24.684;2023-01-28T04:15:44;98568.16;;;4.58;80.64
22753;BME280;11543;43.144;24.684;2023-01-28T04:18:11;98567.06;;;4.60;79.95
22753;BME280;11543;43.144;24.684;2023-01-28T04:20:37;98574.53;;;4.66;80.04
22753;BME280;11543;43.144;24.684;2023-01-28T04:23:04;98561.13;;;4.68;80.13
22753;BME280;11543;43.144;24.684;2023-01-28T04:25:32;98576.81;;;4.71;79.64
22753;BME280;11543;43.144;24.684;2023-01-28T04:27:58;98567.03;;;4.71;79.77
22753;BME280;11543;43.144;24.684;2023-01-28T04:30:24;98570.28;;;4.75;79.21
22753;BME280;11543;43.144;24.684;2023-01-28T04:32:49;98567.16;;;4.70;79.21
22753;BME280;11543;43.144;24.684;2023-01-28T04:35:16;98578.88;;;4.67;79.74
22753;BME280;11543;43.144;24.684;2023-01-28T04:37:41;98577.31;;;4.65;79.56
22753;BME280;11543;43.144;24.684;2023-01-28T04:40:08;98574.66;;;4.65;79.55
22753;BME280;11543;43.144;24.684;2023-01-28T04:42:34;98587.69;;;4.68;79.53
22753;BME280;11543;43.144;24.684;2023-01-28T04:44:59;98575.41;;;4.56;79.67
22753;BME280;11543;43.144;24.684;2023-01-28T04:47:24;98579.84;;;4.66;79.54
22753;BME280;11543;43.144;24.684;2023-01-28T04:49:50;98603.38;;;4.71;79.51
22753;BME280;11543;43.144;24.684;2023-01-28T04:52:16;98600.00;;;4.69;79.09
22753;BME280;11543;43.144;24.684;2023-01-28T04:54:41;98591.06;;;4.70;78.99
22753;BME280;11543;43.144;24.684;2023-01-28T04:57:07;98599.50;;;4.75;79.36
22753;BME280;11543;43.144;24.684;2023-01-28T04:59:32;98608.44;;;4.74;78.92
22753;BME280;11543;43.144;24.684;2023-01-28T05:01:58;98607.72;;;4.72;78.64
22753;BME280;11543;43.144;24.684;2023-01-28T05:04:23;98615.44;;;4.75;79.03
22753;BME280;11543;43.144;24.684;2023-01-28T05:06:49;98618.56;;;4.80;79.04
22753;BME280;11543;43.144;24.684;2023-01-28T05:09:15;98620.13;;;4.83;78.78
22753;BME280;11543;43.144;24.684;2023-01-28T05:11:40;98623.91;;;4.80;78.75
22753;BME280;11543;43.144;24.684;2023-01-28T05:14:06;98622.91;;;4.81;78.70
22753;BME280;11543;43.144;24.684;2023-01-28T05:16:32;98631.63;;;4.83;78.97
22753;BME280;11543;43.144;24.684;2023-01-28T05:18:59;98626.56;;;4.80;78.43
22753;BME280;11543;43.144;24.684;2023-01-28T05:21:26;98628.72;;;4.75;78.78
22753;BME280;11543;43.144;24.684;2023-01-28T05:23:51;98626.06;;;4.75;78.78
22753;BME280;11543;43.144;24.684;2023-01-28T05:26:17;98626.69;;;4.78;78.26
22753;BME280;11543;43.144;24.684;2023-01-28T05:28:42;98631.16;;;4.78;78.35
22753;BME280;11543;43.144;24.684;2023-01-28T05:31:09;98634.53;;;4.80;78.65
22753;BME280;11543;43.144;24.684;2023-01-28T05:33:35;98643.47;;;4.79;78.51
22753;BME280;11543;43.144;24.684;2023-01-28T05:36:01;98638.75;;;4.83;78.16
22753;BME280;11543;43.144;24.684;2023-01-28T05:38:26;98639.59;;;4.83;78.53
22753;BME280;11543;43.144;24.684;2023-01-28T05:40:52;98644.91;;;4.83;78.30
22753;BME280;11543;43.144;24.684;2023-01-28T05:43:20;98652.16;;;4.81;78.51
22753;BME280;11543;43.144;24.684;2023-01-28T05:45:46;98648.56;;;4.71;78.39
22753;BME280;11543;43.144;24.684;2023-01-28T05:48:12;98653.16;;;4.69;78.37
22753;BME280;11543;43.144;24.684;2023-01-28T05:50:40;98659.78;;;4.74;78.54
22753;BME280;11543;43.144;24.684;2023-01-28T05:53:06;98654.59;;;4.73;78.38
22753;BME280;11543;43.144;24.684;2023-01-28T05:55:32;98658.56;;;4.78;78.64
22753;BME280;11543;43.144;24.684;2023-01-28T05:57:58;98650.97;;;4.74;78.46
22753;BME280;11543;43.144;24.684;2023-01-28T06:00:23;98658.22;;;4.72;79.03
22753;BME280;11543;43.144;24.684;2023-01-28T06:02:50;98656.53;;;4.71;78.82
22753;BME280;11543;43.144;24.684;2023-01-28T06:05:17;98659.91;;;4.73;79.10
22753;BME280;11543;43.144;24.684;2023-01-28T06:07:46;98664.72;;;4.79;78.60
22753;BME280;11543;43.144;24.684;2023-01-28T06:10:13;98660.50;;;4.76;78.93
22753;BME280;11543;43.144;24.684;2023-01-28T06:12:39;98664.72;;;4.79;78.86
22753;BME280;11543;43.144;24.684;2023-01-28T06:15:05;98671.47;;;4.83;78.83
22753;BME280;11543;43.144;24.684;2023-01-28T06:17:31;98668.34;;;4.78;78.42
22753;BME280;11543;43.144;24.684;2023-01-28T06:19:58;98675.25;;;4.58;78.51
22753;BME280;11543;43.144;24.684;2023-01-28T06:22:24;98676.94;;;4.48;79.20
22753;BME280;11543;43.144;24.684;2023-01-28T06:24:50;98669.34;;;4.43;79.02
22753;BME280;11543;43.144;24.684;2023-01-28T06:27:15;98675.59;;;4.31;79.17
22753;BME280;11543;43.144;24.684;2023-01-28T06:29:41;98678.25;;;4.20;79.10
22753;BME280;11543;43.144;24.684;2023-01-28T06:32:06;98682.09;;;4.16;79.97
22753;BME280;11543;43.144;24.684;2023-01-28T06:34:32;98674.38;;;4.13;80.46
22753;BME280;11543;43.144;24.684;2023-01-28T06:36:57;98684.88;;;4.14;80.73
22753;BME280;11543;43.144;24.684;2023-01-28T06:39:23;98690.31;;;4.13;80.85
22753;BME280;11543;43.144;24.684;2023-01-28T06:41:51;98686.19;;;4.09;81.39
22753;BME280;11543;43.144;24.684;2023-01-28T06:44:16;98686.66;;;4.03;81.34
22753;BME280;11543;43.144;24.684;2023-01-28T06:46:42;98687.97;;;3.97;81.30
22753;BME280;11543;43.144;24.684;2023-01-28T06:49:07;98688.81;;;3.98;81.32
22753;BME280;11543;43.144;24.684;2023-01-28T06:51:33;98698.13;;;4.03;81.39
22753;BME280;11543;43.144;24.684;2023-01-28T06:53:58;98696.56;;;4.01;81.54
22753;BME280;11543;43.144;24.684;2023-01-28T06:56:24;98712.13;;;4.05;81.25
22753;BME280;11543;43.144;24.684;2023-01-28T06:58:50;98699.22;;;4.01;81.50
22753;BME280;11543;43.144;24.684;2023-01-28T07:01:15;98715.88;;;4.03;81.73
22753;BME280;11543;43.144;24.684;2023-01-28T07:03:41;98705.59;;;3.98;82.12
22753;BME280;11543;43.144;24.684;2023-01-28T07:06:06;98723.13;;;4.12;81.87
22753;BME280;11543;43.144;24.684;2023-01-28T07:08:32;98720.22;;;4.15;82.31
22753;BME280;11543;43.144;24.684;2023-01-28T07:10:58;98723.03;;;4.25;82.02
22753;BME280;11543;43.144;24.684;2023-01-28T07:13:23;98723.38;;;4.31;81.25
22753;BME280;11543;43.144;24.684;2023-01-28T07:15:49;98709.63;;;4.26;81.24
22753;BME280;11543;43.144;24.684;2023-01-28T07:18:15;98721.25;;;4.36;80.77
22753;BME280;11543;43.144;24.684;2023-01-28T07:20:40;98729.34;;;4.35;80.45
22753;BME280;11543;43.144;24.684;2023-01-28T07:23:06;98728.69;;;4.31;80.77
22753;BME280;11543;43.144;24.684;2023-01-28T07:25:32;98736.91;;;4.28;80.87
22753;BME280;11543;43.144;24.684;2023-01-28T07:27:57;98732.78;;;4.24;80.92
22753;BME280;11543;43.144;24.684;2023-01-28T07:30:23;98714.19;;;4.13;80.56
22753;BME280;11543;43.144;24.684;2023-01-28T07:32:57;98733.03;;;4.21;80.83
22753;BME280;11543;43.144;24.684;2023-01-28T07:35:25;98744.63;;;4.20;80.73
22753;BME280;11543;43.144;24.684;2023-01-28T07:37:58;98741.59;;;4.13;80.99
22753;BME280;11543;43.144;24.684;2023-01-28T07:40:27;98744.13;;;4.15;81.80
22753;BME280;11543;43.144;24.684;2023-01-28T07:42:53;98742.91;;;4.08;81.29
22753;BME280;11543;43.144;24.684;2023-01-28T07:45:20;98730.81;;;4.04;81.75
22753;BME280;11543;43.144;24.684;2023-01-28T07:48:05;98731.66;;;4.04;81.65
22753;BME280;11543;43.144;24.684;2023-01-28T07:50:33;98736.50;;;4.10;81.82
22753;BME280;11543;43.144;24.684;2023-01-28T07:53:08;98744.25;;;4.13;82.30
22753;BME280;11543;43.144;24.684;2023-01-28T07:55:38;98732.03;;;4.00;82.27
22753;BME280;11543;43.144;24.684;2023-01-28T07:58:05;98742.63;;;4.00;81.91
22753;BME280;11543;43.144;24.684;2023-01-28T08:00:32;98734.03;;;3.85;82.27
22753;BME280;11543;43.144;24.684;2023-01-28T08:03:02;98748.06;;;3.98;82.20
22753;BME280;11543;43.144;24.684;2023-01-28T08:05:38;98746.75;;;4.04;82.26
22753;BME280;11543;43.144;24.684;2023-01-28T08:08:06;98745.75;;;3.94;82.35
22753;BME280;11543;43.144;24.684;2023-01-28T08:10:34;98744.75;;;3.83;82.25
22753;BME280;11543;43.144;24.684;2023-01-28T08:12:59;98744.03;;;3.81;82.26
22753;BME280;11543;43.144;24.684;2023-01-28T08:15:26;98752.22;;;3.78;82.36
22753;BME280;11543;43.144;24.684;2023-01-28T08:17:58;98753.41;;;3.74;82.39
22753;BME280;11543;43.144;24.684;2023-01-28T08:20:26;98759.19;;;3.68;82.41
22753;BME280;11543;43.144;24.684;2023-01-28T08:22:52;98751.44;;;3.65;82.87
22753;BME280;11543;43.144;24.684;2023-01-28T08:25:18;98758.22;;;3.69;82.88
22753;BME280;11543;43.144;24.684;2023-01-28T08:27:43;98750.81;;;3.62;82.79
22753;BME280;11543;43.144;24.684;2023-01-28T08:30:09;98766.16;;;3.69;82.90
22753;BME280;11543;43.144;24.684;2023-01-28T08:32:35;98758.22;;;3.69;83.25
22753;BME280;11543;43.144;24.684;2023-01-28T08:35:01;98779.03;;;3.87;83.16
22753;BME280;11543;43.144;24.684;2023-01-28T08:37:26;98771.06;;;3.87;83.32
22753;BME280;11543;43.144;24.684;2023-01-28T08:39:52;98775.91;;;3.93;82.90
22753;BME280;11543;43.144;24.684;2023-01-28T08:42:17;98779.13;;;3.85;82.88
22753;BME280;11543;43.144;24.684;2023-01-28T08:44:43;98768.38;;;3.75;83.05
22753;BME280;11543;43.144;24.684;2023-01-28T08:47:09;98771.59;;;3.68;83.02
22753;BME280;11543;43.144;24.684;2023-01-28T08:49:34;98774.97;;;3.70;83.27
22753;BME280;11543;43.144;24.684;2023-01-28T08:52:00;98770.88;;;3.66;83.02
22753;BME280;11543;43.144;24.684;2023-01-28T08:54:25;98768.44;;;3.63;83.46
22753;BME280;11543;43.144;24.684;2023-01-28T08:56:51;98760.59;;;3.61;83.59
22753;BME280;11543;43.144;24.684;2023-01-28T08:59:17;98778.75;;;3.78;83.79
22753;BME280;11543;43.144;24.684;2023-01-28T09:01:42;98782.66;;;3.86;83.34
22753;BME280;11543;43.144;24.684;2023-01-28T09:04:08;98781.22;;;3.93;83.68
22753;BME280;11543;43.144;24.684;2023-01-28T09:06:33;98772.06;;;3.97;83.34
22753;BME280;11543;43.144;24.684;2023-01-28T09:08:59;98781.38;;;4.02;83.07
22753;BME280;11543;43.144;24.684;2023-01-28T09:11:26;98764.38;;;4.05;83.07
22753;BME280;11543;43.144;24.684;2023-01-28T09:13:51;98773.75;;;3.98;83.08
22753;BME280;11543;43.144;24.684;2023-01-28T09:16:17;98771.13;;;4.09;83.54
22753;BME280;11543;43.144;24.684;2023-01-28T09:18:44;98766.81;;;4.19;82.92
22753;BME280;11543;43.144;24.684;2023-01-28T09:21:10;98774.81;;;4.30;82.51
22753;BME280;11543;43.144;24.684;2023-01-28T09:23:38;98757.91;;;4.31;82.24
22753;BME280;11543;43.144;24.684;2023-01-28T09:26:05;98759.66;;;4.43;81.66
22753;BME280;11543;43.144;24.684;2023-01-28T09:28:32;98766.19;;;4.51;81.74
22753;BME280;11543;43.144;24.684;2023-01-28T09:31:06;98762.56;;;4.52;81.59
22753;BME280;11543;43.144;24.684;2023-01-28T09:33:33;98768.84;;;4.51;81.48
22753;BME280;11543;43.144;24.684;2023-01-28T09:36:00;98760.88;;;4.51;81.24
22753;BME280;11543;43.144;24.684;2023-01-28T09:38:27;98758.94;;;4.53;81.48
22753;BME280;11543;43.144;24.684;2023-01-28T09:40:53;98753.88;;;4.50;80.89
22753;BME280;11543;43.144;24.684;2023-01-28T09:43:43;98762.06;;;4.46;80.90
22753;BME280;11543;43.144;24.684;2023-01-28T09:46:13;98762.56;;;4.40;81.13
22753;BME280;11543;43.144;24.684;2023-01-28T09:48:46;98753.06;;;4.25;81.34
22753;BME280;11543;43.144;24.684;2023-01-28T09:51:37;98758.13;;;4.17;81.78
22753;BME280;11543;43.144;24.684;2023-01-28T09:54:57;98768.13;;;4.13;81.96
22753;BME280;11543;43.144;24.684;2023-01-28T09:57:03;98770.41;;;4.07;82.16
22753;BME280;11543;43.144;24.684;2023-01-28T09:59:33;98766.53;;;4.00;82.38
22753;BME280;11543;43.144;24.684;2023-01-28T10:02:22;98767.84;;;3.94;82.79
22753;BME280;11543;43.144;24.684;2023-01-28T10:05:02;98773.03;;;3.96;83.10
22753;BME280;11543;43.144;24.684;2023-01-28T10:10:15;98763.16;;;3.98;83.32
22753;BME280;11543;43.144;24.684;2023-01-28T10:15:59;98767.75;;;4.07;83.66
22753;BME280;11543;43.144;24.684;2023-01-28T10:19:02;98772.59;;;4.13;83.72
22753;BME280;11543;43.144;24.684;2023-01-28T10:21:52;98769.38;;;4.21;83.75
22753;BME280;11543;43.144;24.684;2023-01-28T10:24:34;98752.81;;;4.17;83.65
22753;BME280;11543;43.144;24.684;2023-01-28T10:27:02;98765.03;;;4.31;83.42
22753;BME280;11543;43.144;24.684;2023-01-28T10:29:31;98763.22;;;4.31;83.37
22753;BME280;11543;43.144;24.684;2023-01-28T10:34:29;98768.34;;;4.45;82.39
22753;BME280;11543;43.144;24.684;2023-01-28T10:36:56;98764.50;;;4.50;82.40
22753;BME280;11543;43.144;24.684;2023-01-28T10:39:26;98764.72;;;4.46;82.12
22753;BME280;11543;43.144;24.684;2023-01-28T10:41:52;98759.53;;;4.45;82.29
22753;BME280;11543;43.144;24.684;2023-01-28T10:46:56;98756.88;;;4.56;81.94
22753;BME280;11543;43.144;24.684;2023-01-28T10:49:28;98768.38;;;4.57;81.98
22753;BME280;11543;43.144;24.684;2023-01-28T10:51:55;98773.44;;;4.60;81.88
22753;BME280;11543;43.144;24.684;2023-01-28T10:54:27;98770.19;;;4.56;81.90
22753;BME280;11543;43.144;24.684;2023-01-28T10:57:01;98767.13;;;4.38;82.03
22753;BME280;11543;43.144;24.684;2023-01-28T10:59:33;98766.66;;;4.44;82.63
22753;BME280;11543;43.144;24.684;2023-01-28T11:02:17;98734.13;;;4.30;82.56
22753;BME280;11543;43.144;24.684;2023-01-28T11:04:44;98759.19;;;4.50;82.90
22753;BME280;11543;43.144;24.684;2023-01-28T11:07:27;98762.56;;;4.63;82.80
22753;BME280;11543;43.144;24.684;2023-01-28T11:09:53;98756.78;;;4.58;82.62
22753;BME280;11543;43.144;24.684;2023-01-28T11:12:23;98760.41;;;4.57;82.42
22753;BME280;11543;43.144;24.684;2023-01-28T11:14:53;98759.91;;;4.63;82.51
22753;BME280;11543;43.144;24.684;2023-01-28T11:17:20;98761.13;;;4.70;82.16
22753;BME280;11543;43.144;24.684;2023-01-28T11:19:49;98758.94;;;4.75;81.84
22753;BME280;11543;43.144;24.684;2023-01-28T11:22:55;98753.88;;;4.72;82.13
22753;BME280;11543;43.144;24.684;2023-01-28T11:27:55;98744.47;;;4.79;81.94
22753;BME280;11543;43.144;24.684;2023-01-28T11:30:34;98732.72;;;4.82;81.89
22753;BME280;11543;43.144;24.684;2023-01-28T11:33:30;98748.06;;;5.00;81.50
22753;BME280;11543;43.144;24.684;2023-01-28T11:36:33;98737.69;;;4.97;81.37
22753;BME280;11543;43.144;24.684;2023-01-28T11:39:16;98733.44;;;5.06;81.11
22753;BME280;11543;43.144;24.684;2023-01-28T11:41:51;98756.75;;;5.25;80.69
22753;BME280;11543;43.144;24.684;2023-01-28T11:44:24;98732.31;;;5.20;80.63
22753;BME280;11543;43.144;24.684;2023-01-28T11:49:47;98753.56;;;5.42;80.54
22753;BME280;11543;43.144;24.684;2023-01-28T12:16:18;98748.28;;;5.20;81.37
22753;BME280;11543;43.144;24.684;2023-01-28T12:19:02;98760.88;;;5.29;80.86
22753;BME280;11543;43.144;24.684;2023-01-28T12:30:39;98769.22;;;4.57;80.63
22753;BME280;11543;43.144;24.684;2023-01-28T12:41:02;98769.00;;;4.25;81.25
22753;BME280;11543;43.144;24.684;2023-01-28T12:49:08;98776.84;;;4.15;81.97
22753;BME280;11543;43.144;24.684;2023-01-28T12:51:51;98769.91;;;4.02;82.12
22753;BME280;11543;43.144;24.684;2023-01-28T12:54:30;98759.28;;;4.02;82.47
22753;BME280;11543;43.144;24.684;2023-01-28T12:56:58;98780.75;;;3.99;82.62
22753;BME280;11543;43.144;24.684;2023-01-28T12:59:26;98773.75;;;3.98;82.37
22753;BME280;11543;43.144;24.684;2023-01-28T13:02:02;98764.28;;;3.82;82.69
22753;BME280;11543;43.144;24.684;2023-01-28T13:04:39;98780.38;;;3.92;82.54
22753;BME280;11543;43.144;24.684;2023-01-28T13:07:32;98781.91;;;3.83;82.99
22753;BME280;11543;43.144;24.684;2023-01-28T13:10:47;98787.69;;;3.77;82.86
22753;BME280;11543;43.144;24.684;2023-01-28T13:12:48;98787.63;;;3.66;82.83
22753;BME280;11543;43.144;24.684;2023-01-28T13:15:16;98780.34;;;3.57;82.89
22753;BME280;11543;43.144;24.684;2023-01-28T13:18:04;98790.28;;;3.66;82.96
22753;BME280;11543;43.144;24.684;2023-01-28T13:20:37;98790.94;;;3.57;83.49
22753;BME280;11543;43.144;24.684;2023-01-28T13:23:18;98799.47;;;3.49;83.67
22753;BME280;11543;43.144;24.684;2023-01-28T13:25:51;98797.56;;;3.39;83.91
22753;BME280;11543;43.144;24.684;2023-01-28T13:28:27;98797.34;;;3.42;84.20
22753;BME280;11543;43.144;24.684;2023-01-28T13:31:03;98808.41;;;3.36;84.63
22753;BME280;11543;43.144;24.684;2023-01-28T13:33:35;98811.16;;;3.34;84.81
22753;BME280;11543;43.144;24.684;2023-01-28T13:36:15;98791.69;;;3.23;85.17
22753;BME280;11543;43.144;24.684;2023-01-28T13:38:43;98810.31;;;3.34;85.10
22753;BME280;11543;43.144;24.684;2023-01-28T13:41:09;98812.22;;;3.32;85.28
22753;BME280;11543;43.144;24.684;2023-01-28T13:43:38;98815.41;;;3.37;85.59
22753;BME280;11543;43.144;24.684;2023-01-28T13:46:05;98816.97;;;3.39;85.58
22753;BME280;11543;43.144;24.684;2023-01-28T13:48:51;98828.53;;;3.51;85.62
22753;BME280;11543;43.144;24.684;2023-01-28T13:51:25;98803.31;;;3.33;85.44
22753;BME280;11543;43.144;24.684;2023-01-28T13:56:38;98823.97;;;3.40;85.67
22753;BME280;11543;43.144;24.684;2023-01-28T14:10:25;98843.59;;;3.38;85.96
22753;BME280;11543;43.144;24.684;2023-01-28T14:15:51;98836.84;;;3.34;85.78
22753;BME280;11543;43.144;24.684;2023-01-28T14:18:27;98838.53;;;3.35;85.62
22753;BME280;11543;43.144;24.684;2023-01-28T14:20:55;98842.75;;;3.37;85.75
22753;BME280;11543;43.144;24.684;2023-01-28T14:23:25;98840.88;;;3.27;86.08
22753;BME280;11543;43.144;24.684;2023-01-28T14:31:30;98843.19;;;3.31;85.85
22753;BME280;11543;43.144;24.684;2023-01-28T14:34:05;98845.31;;;3.39;86.15
22753;BME280;11543;43.144;24.684;2023-01-28T14:36:38;98852.53;;;3.49;86.04
22753;BME280;11543;43.144;24.684;2023-01-28T14:39:15;98849.53;;;3.54;85.78
22753;BME280;11543;43.144;24.684;2023-01-28T14:41:42;98850.78;;;3.61;86.31
22753;BME280;11543;43.144;24.684;2023-01-28T14:44:08;98848.63;;;3.66;86.46
22753;BME280;11543;43.144;24.684;2023-01-28T14:46:44;98850.34;;;3.67;86.69
22753;BME280;11543;43.144;24.684;2023-01-28T14:49:39;98851.06;;;3.69;86.51
22753;BME280;11543;43.144;24.684;2023-01-28T14:57:47;98860.69;;;3.83;86.33
22753;BME280;11543;43.144;24.684;2023-01-28T15:02:45;98863.84;;;4.12;86.42
22753;BME280;11543;43.144;24.684;2023-01-28T15:05:28;98867.03;;;4.28;86.35
22753;BME280;11543;43.144;24.684;2023-01-28T15:07:54;98864.69;;;4.36;85.97